Time;durP1;ratioP1;P1;durP2;ratioP2;P2;SDS_P1;SDS_P2;PMS_P1;PMS_P2;Temp;Humidity;BMP_temperature;BMP_pressure;BME280_temperature;BME280_humidity;BME280_pressure;Samples;Min_cycle;Max_cycle;Signal;HPM_P1;HPM_P2
2021/03/24 00:00:38;;;;;;;11.83;8.30;;;3.10;99.90;;;;;;5025318;28;20202;-79
2021/03/24 00:03:05;;;;;;;10.70;7.40;;;3.10;99.90;;;;;;5033919;28;20282;-81
2021/03/24 00:05:37;;;;;;;12.60;8.13;;;3.10;99.90;;;;;;5033027;28;20699;-79
2021/03/24 00:08:04;;;;;;;9.87;7.43;;;3.00;99.90;;;;;;5018106;28;20186;-79
2021/03/24 00:10:31;;;;;;;9.90;6.90;;;3.10;99.90;;;;;;5035115;28;20190;-80
2021/03/24 00:12:58;;;;;;;11.33;7.90;;;3.10;99.90;;;;;;5017534;28;20227;-80
2021/03/24 00:15:25;;;;;;;13.73;7.93;;;3.20;99.90;;;;;;5025029;28;20211;-79
2021/03/24 00:17:51;;;;;;;13.03;9.27;;;3.20;99.90;;;;;;5024994;28;20214;-80
2021/03/24 00:20:19;;;;;;;11.53;7.40;;;3.20;99.90;;;;;;5016748;28;20183;-80
2021/03/24 00:22:45;;;;;;;11.57;7.63;;;3.20;99.90;;;;;;5034350;28;20597;-79
2021/03/24 00:25:14;;;;;;;10.13;7.93;;;3.30;99.90;;;;;;5016477;28;20293;-80
2021/03/24 00:27:48;;;;;;;11.40;8.07;;;3.30;99.90;;;;;;5033524;28;20179;-79
2021/03/24 00:30:18;;;;;;;9.33;6.93;;;3.20;99.90;;;;;;5016837;28;20178;-79
2021/03/24 00:32:44;;;;;;;14.57;7.93;;;3.20;99.90;;;;;;5026128;28;20547;-80
2021/03/24 00:35:10;;;;;;;9.37;6.93;;;3.10;99.90;;;;;;5024452;28;20210;-79
2021/03/24 00:37:36;;;;;;;12.00;9.10;;;3.10;99.90;;;;;;5023301;28;20209;-79
2021/03/24 00:40:05;;;;;;;11.30;7.67;;;3.10;99.90;;;;;;5024804;28;20832;-80
2021/03/24 00:42:31;;;;;;;13.13;8.63;;;3.20;99.90;;;;;;5023374;28;20182;-80
2021/03/24 00:44:56;;;;;;;12.70;9.07;;;3.20;99.90;;;;;;5024088;28;20186;-79
2021/03/24 00:47:22;;;;;;;11.53;8.27;;;3.30;99.90;;;;;;5023592;28;20225;-80
2021/03/24 00:49:47;;;;;;;15.83;10.43;;;3.40;99.90;;;;;;5024739;28;20240;-79
2021/03/24 00:52:13;;;;;;;15.27;10.30;;;3.40;99.90;;;;;;5024364;28;20193;-80
2021/03/24 00:54:38;;;;;;;13.37;9.40;;;3.50;99.90;;;;;;5025379;28;20246;-79
2021/03/24 00:57:05;;;;;;;14.67;9.77;;;3.60;99.90;;;;;;5025704;28;20210;-79
2021/03/24 00:59:30;;;;;;;14.23;9.63;;;3.60;99.90;;;;;;5023577;28;20189;-80
2021/03/24 01:01:56;;;;;;;13.23;8.97;;;3.70;99.90;;;;;;5024576;28;20639;-80
2021/03/24 01:04:22;;;;;;;16.37;11.70;;;3.80;99.90;;;;;;5024463;28;20183;-79
2021/03/24 01:06:48;;;;;;;16.30;10.93;;;3.80;99.90;;;;;;5024187;28;20203;-79
2021/03/24 01:09:13;;;;;;;15.47;10.87;;;3.80;99.90;;;;;;5024364;28;20175;-79
2021/03/24 01:11:40;;;;;;;16.43;10.27;;;3.90;99.90;;;;;;5025627;28;20198;-80
2021/03/24 01:14:09;;;;;;;16.80;10.87;;;3.90;99.90;;;;;;5023491;28;20692;-80
2021/03/24 01:16:35;;;;;;;14.97;10.87;;;3.90;99.90;;;;;;5025291;28;20202;-80
2021/03/24 01:19:00;;;;;;;15.93;11.47;;;3.90;99.90;;;;;;5031620;28;20179;-79
2021/03/24 01:21:26;;;;;;;15.40;9.83;;;4.00;99.90;;;;;;5024349;28;20271;-80
2021/03/24 01:23:52;;;;;;;15.80;11.27;;;4.00;99.90;;;;;;5023713;28;20187;-80
2021/03/24 01:26:19;;;;;;;16.43;10.53;;;4.00;99.90;;;;;;5023692;28;20211;-80
2021/03/24 01:28:45;;;;;;;17.23;10.83;;;4.00;99.90;;;;;;5024059;28;20680;-80
2021/03/24 01:31:10;;;;;;;20.47;11.90;;;4.00;99.90;;;;;;5025251;28;20221;-80
2021/03/24 01:33:36;;;;;;;18.10;10.43;;;4.00;99.90;;;;;;5024620;28;20722;-80
2021/03/24 01:36:02;;;;;;;17.03;10.70;;;4.00;99.90;;;;;;5023687;28;20210;-80
2021/03/24 01:38:28;;;;;;;17.30;10.47;;;4.00;99.90;;;;;;5025405;28;21330;-79
2021/03/24 01:40:56;;;;;;;15.57;9.90;;;4.00;99.90;;;;;;5024040;28;20232;-79
2021/03/24 01:43:29;;;;;;;17.53;10.47;;;4.00;99.90;;;;;;5023820;28;20179;-79
2021/03/24 01:46:19;;;;;;;14.90;10.83;;;4.10;99.90;;;;;;5032696;28;20276;-80
2021/03/24 01:48:58;;;;;;;13.23;9.83;;;4.00;99.90;;;;;;5015561;28;20175;-80
2021/03/24 01:51:45;;;;;;;15.83;10.33;;;4.00;99.90;;;;;;5025255;28;20275;-79
2021/03/24 01:54:16;;;;;;;15.90;11.10;;;4.00;99.90;;;;;;5023762;28;20206;-79
2021/03/24 01:56:45;;;;;;;17.57;12.17;;;4.00;99.90;;;;;;5030732;28;20302;-80
2021/03/24 01:59:11;;;;;;;17.17;11.50;;;4.10;99.90;;;;;;5024676;28;20333;-80
2021/03/24 02:01:37;;;;;;;27.10;11.33;;;4.10;99.90;;;;;;5023921;28;20187;-80
2021/03/24 02:04:03;;;;;;;16.77;11.43;;;4.10;99.90;;;;;;5024039;28;20191;-81
2021/03/24 02:06:38;;;;;;;14.83;10.53;;;4.20;99.90;;;;;;5024817;28;20207;-79
2021/03/24 02:09:06;;;;;;;16.10;11.27;;;4.20;99.90;;;;;;5024129;28;20182;-80
2021/03/24 02:12:00;;;;;;;16.93;11.47;;;4.20;99.90;;;;;;5023640;28;20192;-80
2021/03/24 02:14:34;;;;;;;15.67;10.73;;;4.20;99.90;;;;;;5018279;28;20222;-80
2021/03/24 02:17:02;;;;;;;16.93;10.53;;;4.30;99.90;;;;;;5023544;28;20202;-79
2021/03/24 02:19:41;;;;;;;18.77;11.73;;;4.30;99.90;;;;;;5014497;28;20187;-80
2021/03/24 02:22:10;;;;;;;16.80;11.57;;;4.30;99.90;;;;;;5023703;28;20186;-80
2021/03/24 02:24:58;;;;;;;17.60;10.50;;;4.30;99.90;;;;;;5023975;28;20202;-79
2021/03/24 02:27:29;;;;;;;16.47;11.53;;;4.30;99.90;;;;;;5024922;28;20198;-78
2021/03/24 02:30:04;;;;;;;17.37;11.47;;;4.40;99.90;;;;;;5026163;28;20194;-80
2021/03/24 02:32:33;;;;;;;16.90;11.10;;;4.40;99.90;;;;;;5027332;28;20246;-80
2021/03/24 02:35:04;;;;;;;16.83;11.93;;;4.50;99.90;;;;;;5018033;28;20260;-81
2021/03/24 02:37:34;;;;;;;17.23;11.30;;;4.50;99.90;;;;;;5017477;28;20197;-80
2021/03/24 02:40:04;;;;;;;18.33;12.60;;;4.50;99.90;;;;;;5018150;28;20976;-79
2021/03/24 02:42:29;;;;;;;15.60;10.03;;;4.50;99.90;;;;;;5027125;28;20664;-81
2021/03/24 02:44:55;;;;;;;18.90;12.00;;;4.60;99.90;;;;;;5025977;28;20226;-79
2021/03/24 02:47:21;;;;;;;17.67;11.70;;;4.50;99.90;;;;;;5027177;28;20521;-80
2021/03/24 02:49:48;;;;;;;16.60;9.87;;;4.60;99.90;;;;;;5026473;28;20197;-79
2021/03/24 02:52:15;;;;;;;17.17;11.00;;;4.60;99.90;;;;;;5018076;28;20190;-80
2021/03/24 02:54:43;;;;;;;16.63;10.70;;;4.60;99.90;;;;;;5026683;28;20297;-80
2021/03/24 02:57:09;;;;;;;15.63;11.13;;;4.60;99.90;;;;;;5027155;28;20214;-80
2021/03/24 02:59:35;;;;;;;15.93;10.07;;;4.60;99.90;;;;;;5027914;28;20570;-81
2021/03/24 03:02:14;;;;;;;15.80;10.90;;;4.60;99.90;;;;;;5026606;28;20187;-80
2021/03/24 03:04:45;;;;;;;17.03;10.73;;;4.60;99.90;;;;;;5027599;28;20225;-81
2021/03/24 03:07:20;;;;;;;16.97;10.40;;;4.70;99.90;;;;;;5028118;28;20215;-80
2021/03/24 03:09:50;;;;;;;17.67;12.27;;;4.60;99.90;;;;;;5026174;28;20194;-80
2021/03/24 03:12:23;;;;;;;18.57;12.07;;;4.70;99.90;;;;;;5017321;28;20926;-80
2021/03/24 03:15:13;;;;;;;15.40;10.80;;;4.70;99.90;;;;;;5035542;28;20253;-80
2021/03/24 03:17:47;;;;;;;18.50;11.40;;;4.70;99.90;;;;;;5017742;28;20933;-80
2021/03/24 03:20:36;;;;;;;17.93;10.60;;;4.70;99.90;;;;;;5026230;28;20193;-79
2021/03/24 03:23:06;;;;;;;19.30;11.60;;;4.70;99.90;;;;;;5026060;28;20211;-81
2021/03/24 03:25:35;;;;;;;24.33;11.83;;;4.70;99.90;;;;;;5025668;28;20257;-80
2021/03/24 03:28:06;;;;;;;16.73;10.50;;;4.80;99.90;;;;;;5027314;28;20648;-80
2021/03/24 03:30:36;;;;;;;20.20;11.27;;;4.70;99.90;;;;;;5035088;28;20187;-81
2021/03/24 03:33:05;;;;;;;18.97;11.10;;;4.70;99.90;;;;;;5025614;28;20205;-80
2021/03/24 03:35:34;;;;;;;16.87;10.90;;;4.70;99.90;;;;;;5026688;28;20639;-80
2021/03/24 03:38:02;;;;;;;17.63;10.70;;;4.70;99.90;;;;;;5025916;28;20237;-80
2021/03/24 03:40:34;;;;;;;18.70;11.27;;;4.80;99.90;;;;;;5025817;28;20187;-80
2021/03/24 03:43:06;;;;;;;16.67;10.53;;;4.90;99.90;;;;;;5025196;28;20245;-80
2021/03/24 03:45:36;;;;;;;15.50;10.53;;;4.90;99.90;;;;;;5026777;28;20300;-80
2021/03/24 03:48:03;;;;;;;19.67;12.40;;;4.80;99.90;;;;;;5026209;28;20604;-80
2021/03/24 03:50:28;;;;;;;18.23;11.23;;;4.80;99.90;;;;;;5025913;28;20229;-80
2021/03/24 03:53:06;;;;;;;18.43;11.10;;;4.80;99.90;;;;;;5025381;28;20179;-80
2021/03/24 03:55:39;;;;;;;18.50;11.23;;;4.80;99.90;;;;;;5025528;28;21126;-80
2021/03/24 03:58:24;;;;;;;18.80;12.27;;;4.80;99.90;;;;;;5016787;28;20645;-80
2021/03/24 04:00:58;;;;;;;22.17;11.67;;;4.80;99.90;;;;;;5027382;28;20648;-81
2021/03/24 04:03:32;;;;;;;18.13;11.23;;;4.80;99.90;;;;;;5027342;28;20175;-80
2021/03/24 04:06:04;;;;;;;18.47;10.37;;;4.90;99.90;;;;;;5025660;28;20201;-80
2021/03/24 04:08:33;;;;;;;18.70;12.23;;;4.90;99.90;;;;;;5025715;28;20192;-80
2021/03/24 04:11:05;;;;;;;18.27;11.37;;;4.90;99.90;;;;;;5026691;28;20209;-80
2021/03/24 04:13:35;;;;;;;20.33;11.50;;;5.10;99.90;;;;;;5026588;28;20241;-80
2021/03/24 04:16:02;;;;;;;19.23;11.93;;;5.20;99.90;;;;;;5025013;28;20676;-80
2021/03/24 04:18:34;;;;;;;20.10;11.77;;;5.10;99.90;;;;;;5025858;28;20193;-80
2021/03/24 04:21:00;;;;;;;18.10;11.63;;;5.20;99.90;;;;;;5025611;28;20241;-80
2021/03/24 04:23:36;;;;;;;16.80;10.20;;;5.10;99.90;;;;;;5026794;28;20218;-80
2021/03/24 04:26:07;;;;;;;17.53;11.50;;;5.10;99.90;;;;;;5024738;28;20211;-79
2021/03/24 04:28:40;;;;;;;16.83;10.53;;;5.10;99.90;;;;;;5025251;28;20191;-82
2021/03/24 04:31:11;;;;;;;17.77;11.30;;;5.10;99.90;;;;;;5026294;28;20270;-80
2021/03/24 04:33:37;;;;;;;19.27;11.73;;;5.10;99.90;;;;;;5026278;28;20202;-79
2021/03/24 04:36:11;;;;;;;20.43;12.27;;;5.10;99.90;;;;;;5016062;28;20203;-80
2021/03/24 04:38:43;;;;;;;18.53;11.70;;;5.10;99.90;;;;;;5016067;28;21091;-80
2021/03/24 04:41:14;;;;;;;22.90;11.73;;;5.20;99.90;;;;;;5024482;28;20179;-80
2021/03/24 04:43:43;;;;;;;22.07;13.43;;;5.20;99.90;;;;;;5024518;28;20198;-79
2021/03/24 04:46:23;;;;;;;17.53;11.93;;;5.20;99.90;;;;;;5025096;28;20230;-79
2021/03/24 04:49:15;;;;;;;21.20;12.93;;;5.30;99.90;;;;;;5032587;28;20187;-80
2021/03/24 04:51:42;;;;;;;17.50;10.77;;;5.20;99.90;;;;;;5023981;28;20664;-80
2021/03/24 04:54:13;;;;;;;17.70;10.10;;;5.20;99.90;;;;;;5023009;28;20634;-79
2021/03/24 04:56:41;;;;;;;21.50;12.87;;;5.30;99.90;;;;;;5033239;28;20206;-81
2021/03/24 04:59:09;;;;;;;16.73;10.87;;;5.30;99.90;;;;;;5032076;28;20816;-80
2021/03/24 05:01:48;;;;;;;16.80;10.30;;;5.30;99.90;;;;;;5024469;28;20241;-80
2021/03/24 05:04:31;;;;;;;14.03;10.10;;;5.40;99.90;;;;;;5033268;28;20179;-80
2021/03/24 05:07:07;;;;;;;15.20;9.33;;;5.40;99.90;;;;;;5025258;28;20222;-80
2021/03/24 05:09:33;;;;;;;18.33;13.17;;;5.40;99.90;;;;;;5024569;28;20205;-80
2021/03/24 05:12:08;;;;;;;15.73;9.83;;;5.30;99.90;;;;;;5023984;28;20660;-79
2021/03/24 05:14:43;;;;;;;16.77;10.43;;;5.30;99.90;;;;;;5032170;28;20214;-80
2021/03/24 05:17:28;;;;;;;22.03;12.17;;;5.20;99.90;;;;;;5033186;28;21086;-80
2021/03/24 05:19:59;;;;;;;13.47;9.50;;;5.30;99.90;;;;;;5025558;28;20605;-80
2021/03/24 05:22:31;;;;;;;20.73;11.40;;;5.20;99.90;;;;;;5025211;28;20650;-80
2021/03/24 05:25:21;;;;;;;18.40;10.53;;;5.20;99.90;;;;;;5015275;28;20183;-80
2021/03/24 05:27:51;;;;;;;17.43;11.60;;;5.20;99.90;;;;;;5032386;28;20187;-80
2021/03/24 05:30:29;;;;;;;14.70;11.20;;;5.20;99.90;;;;;;5016312;28;20193;-80
2021/03/24 05:33:02;;;;;;;17.73;10.40;;;5.10;99.90;;;;;;5023932;28;20208;-80
2021/03/24 05:35:46;;;;;;;18.90;11.70;;;5.10;99.90;;;;;;5023688;28;20232;-80
2021/03/24 05:38:20;;;;;;;17.97;10.73;;;5.20;99.90;;;;;;5022749;28;20333;-80
2021/03/24 05:41:07;;;;;;;16.53;10.80;;;5.20;99.90;;;;;;5023827;28;20183;-79
2021/03/24 05:43:51;;;;;;;18.23;10.60;;;5.20;99.90;;;;;;5023331;28;20186;-80
2021/03/24 05:46:26;;;;;;;17.80;10.97;;;5.20;99.90;;;;;;5014760;28;21252;-80
2021/03/24 05:49:02;;;;;;;16.13;10.13;;;5.30;99.90;;;;;;5023944;28;20217;-80
2021/03/24 05:51:59;;;;;;;14.77;9.20;;;5.30;99.90;;;;;;5025220;28;20197;-79
2021/03/24 05:54:45;;;;;;;16.10;10.67;;;5.40;99.90;;;;;;5012738;28;20218;-81
2021/03/24 05:57:52;;;;;;;16.47;11.27;;;5.40;99.90;;;;;;5025228;28;20251;-81
2021/03/24 06:00:41;;;;;;;17.87;10.37;;;5.40;99.90;;;;;;5003702;28;20198;-80
2021/03/24 06:03:43;;;;;;;16.33;9.73;;;5.50;99.90;;;;;;4985595;28;20191;-79
2021/03/24 06:06:39;;;;;;;16.30;9.17;;;5.60;99.90;;;;;;5027098;28;20234;-81
2021/03/24 06:09:37;;;;;;;17.97;10.10;;;5.60;99.90;;;;;;5036520;28;20211;-79
2021/03/24 06:12:40;;;;;;;19.13;11.17;;;5.80;99.90;;;;;;5027916;28;20207;-79
2021/03/24 06:15:36;;;;;;;17.93;11.23;;;5.80;99.90;;;;;;5018434;28;20206;-80
2021/03/24 06:18:39;;;;;;;14.43;9.70;;;5.90;99.90;;;;;;5034403;28;20179;-79
2021/03/24 06:21:09;;;;;;;18.63;10.47;;;5.90;99.90;;;;;;5018368;28;20185;-79
2021/03/24 06:23:50;;;;;;;15.87;9.90;;;5.90;99.90;;;;;;5027707;28;20206;-79
2021/03/24 06:26:19;;;;;;;17.60;11.87;;;6.00;99.90;;;;;;5027529;28;20232;-79
2021/03/24 06:28:59;;;;;;;15.67;10.30;;;6.10;99.90;;;;;;5017604;28;20226;-80
2021/03/24 06:31:52;;;;;;;17.87;10.27;;;6.30;99.90;;;;;;5033225;28;20262;-79
2021/03/24 06:34:20;;;;;;;16.03;9.53;;;6.40;99.90;;;;;;5025751;28;20194;-79
2021/03/24 06:37:05;;;;;;;16.67;9.97;;;6.50;99.90;;;;;;5034138;28;20816;-80
2021/03/24 06:39:56;;;;;;;18.30;10.37;;;6.50;99.90;;;;;;5026020;28;20759;-80
2021/03/24 06:42:28;;;;;;;15.63;10.30;;;6.60;99.90;;;;;;5025880;28;20245;-79
2021/03/24 06:45:15;;;;;;;16.10;10.00;;;6.70;99.90;;;;;;5034013;28;20193;-79
2021/03/24 06:48:15;;;;;;;14.27;10.03;;;6.70;99.90;;;;;;5025874;28;20205;-82
2021/03/24 06:50:53;;;;;;;16.43;10.50;;;6.90;99.90;;;;;;5026955;28;21111;-79
2021/03/24 06:53:21;;;;;;;18.57;10.47;;;6.90;99.90;;;;;;5025351;28;20276;-80
2021/03/24 06:56:25;;;;;;;16.40;9.83;;;6.90;99.90;;;;;;5017257;28;20218;-79
2021/03/24 06:58:59;;;;;;;18.53;10.33;;;7.00;99.90;;;;;;5032819;28;20179;-80
2021/03/24 07:01:48;;;;;;;18.00;10.97;;;7.00;99.90;;;;;;5027022;28;20167;-80
2021/03/24 07:04:50;;;;;;;17.97;11.00;;;7.00;99.90;;;;;;5025512;28;20210;-79
2021/03/24 07:07:22;;;;;;;16.80;10.07;;;7.10;99.90;;;;;;5026282;28;20255;-79
2021/03/24 07:10:32;;;;;;;17.67;10.10;;;7.10;99.90;;;;;;5016120;28;20179;-80
2021/03/24 07:13:10;;;;;;;15.17;10.03;;;7.30;99.90;;;;;;5025177;28;20186;-81
2021/03/24 07:15:40;;;;;;;18.13;9.00;;;7.30;99.90;;;;;;5016561;28;20326;-80
2021/03/24 07:18:31;;;;;;;16.60;9.87;;;7.30;99.90;;;;;;5026161;28;20187;-80
2021/03/24 07:21:26;;;;;;;15.47;9.73;;;7.30;99.90;;;;;;5034188;28;20175;-80
2021/03/24 07:24:26;;;;;;;17.43;10.23;;;7.40;99.90;;;;;;5024557;28;20754;-80
2021/03/24 07:27:08;;;;;;;17.07;10.17;;;7.50;99.90;;;;;;5025215;28;20642;-80
2021/03/24 07:30:11;;;;;;;16.87;11.47;;;7.40;99.90;;;;;;5042687;28;20187;-79
2021/03/24 07:32:50;;;;;;;13.73;9.00;;;7.50;99.90;;;;;;5017744;28;20191;-80
2021/03/24 07:35:54;;;;;;;17.30;10.50;;;7.50;99.90;;;;;;5019660;28;20684;-80
2021/03/24 07:38:39;;;;;;;14.70;8.93;;;7.40;99.90;;;;;;5019530;28;20229;-80
2021/03/24 07:41:20;;;;;;;16.47;9.57;;;7.50;99.90;;;;;;5014488;28;20194;-79
2021/03/24 07:43:54;;;;;;;17.20;9.83;;;7.50;99.90;;;;;;5022358;28;20217;-80
2021/03/24 07:46:54;;;;;;;15.97;10.20;;;7.60;99.90;;;;;;5021513;28;20221;-80
2021/03/24 07:49:50;;;;;;;18.33;11.73;;;7.60;99.90;;;;;;5012563;28;20171;-80
2021/03/24 07:52:51;;;;;;;17.40;9.57;;;7.80;99.90;;;;;;5024177;28;20179;-79
2021/03/24 07:55:43;;;;;;;16.93;10.33;;;7.80;99.90;;;;;;5023779;28;20741;-80
2021/03/24 07:58:18;;;;;;;17.50;10.53;;;8.00;99.90;;;;;;5032409;28;20524;-80
2021/03/24 08:00:57;;;;;;;16.87;11.40;;;8.20;99.90;;;;;;5024838;28;20186;-79
2021/03/24 08:03:29;;;;;;;14.63;8.93;;;8.40;99.90;;;;;;5023673;28;20200;-79
2021/03/24 08:06:18;;;;;;;13.83;9.17;;;8.50;99.90;;;;;;5023562;28;20202;-79
2021/03/24 08:08:58;;;;;;;14.97;9.13;;;8.70;99.90;;;;;;5023471;28;20233;-79
2021/03/24 08:12:05;;;;;;;17.70;9.23;;;8.90;99.90;;;;;;5015603;28;20971;-79
2021/03/24 08:14:54;;;;;;;20.10;10.97;;;8.90;99.90;;;;;;5032230;28;20206;-80
2021/03/24 08:17:28;;;;;;;14.60;8.53;;;9.00;99.90;;;;;;5024684;28;20178;-80
2021/03/24 08:20:38;;;;;;;16.60;9.73;;;9.00;99.90;;;;;;5023983;28;20187;-81
2021/03/24 08:23:19;;;;;;;15.43;9.10;;;9.00;99.90;;;;;;4992367;28;20652;-79
2021/03/24 08:25:47;;;;;;;16.83;10.63;;;9.00;99.90;;;;;;5022905;28;20210;-80
2021/03/24 08:28:33;;;;;;;15.27;9.47;;;9.20;99.90;;;;;;5031608;28;20182;-81
2021/03/24 08:31:46;;;;;;;16.47;9.60;;;9.40;99.90;;;;;;5014675;28;20182;-79
2021/03/24 08:34:26;;;;;;;16.50;10.77;;;9.50;99.90;;;;;;5022833;28;20288;-80
2021/03/24 08:37:23;;;;;;;15.97;10.20;;;9.80;99.90;;;;;;5019142;28;20198;-80
2021/03/24 08:40:13;;;;;;;15.33;10.30;;;10.00;99.90;;;;;;5020646;28;20350;-81
2021/03/24 08:43:00;;;;;;;17.90;10.73;;;10.10;99.90;;;;;;5023576;28;20716;-80
2021/03/24 08:45:37;;;;;;;16.33;9.13;;;10.10;99.90;;;;;;5028909;28;20215;-80
2021/03/24 08:48:07;;;;;;;14.70;9.93;;;10.30;99.90;;;;;;5022636;28;20195;-80
2021/03/24 08:50:40;;;;;;;18.00;9.80;;;10.40;99.90;;;;;;5024084;28;20195;-79
2021/03/24 08:53:20;;;;;;;15.10;9.53;;;10.50;99.90;;;;;;5024127;28;20233;-79
2021/03/24 08:55:54;;;;;;;18.67;10.53;;;10.50;99.90;;;;;;5022858;28;20684;-79
2021/03/24 08:58:25;;;;;;;18.27;10.20;;;10.60;99.90;;;;;;5031317;28;20278;-79
2021/03/24 09:01:28;;;;;;;13.03;8.60;;;10.60;99.90;;;;;;5022147;28;20183;-80
2021/03/24 09:04:21;;;;;;;15.33;9.47;;;10.60;99.90;;;;;;5012800;28;20664;-79
2021/03/24 09:06:55;;;;;;;16.43;8.73;;;10.50;99.90;;;;;;5022405;28;20211;-79
2021/03/24 09:09:52;;;;;;;16.93;10.43;;;10.60;99.90;;;;;;5022515;28;20936;-80
2021/03/24 09:12:32;;;;;;;19.67;9.93;;;10.50;99.90;;;;;;5015687;28;20613;-81
2021/03/24 09:15:05;;;;;;;12.53;7.83;;;10.50;99.90;;;;;;5030750;28;20210;-80
2021/03/24 09:17:49;;;;;;;14.93;9.57;;;10.60;99.90;;;;;;5013981;28;20659;-80
2021/03/24 09:20:43;;;;;;;18.27;10.50;;;10.90;99.90;;;;;;5022942;28;20187;-80
2021/03/24 09:23:24;;;;;;;17.13;10.30;;;11.00;99.90;;;;;;5017200;28;20187;-80
2021/03/24 09:26:09;;;;;;;16.70;10.17;;;11.20;99.90;;;;;;5014748;28;20910;-80
2021/03/24 09:28:46;;;;;;;18.13;9.20;;;11.40;99.90;;;;;;5023570;28;20209;-80
2021/03/24 09:31:43;;;;;;;12.93;8.57;;;11.40;99.90;;;;;;5025806;28;20320;-79
2021/03/24 09:34:40;;;;;;;17.10;9.23;;;11.60;99.90;;;;;;5017618;28;20206;-80
2021/03/24 09:37:09;;;;;;;14.90;8.90;;;11.70;99.90;;;;;;5025765;28;20207;-79
2021/03/24 09:39:41;;;;;;;14.83;9.53;;;11.70;99.90;;;;;;5014246;28;21053;-80
2021/03/24 09:42:31;;;;;;;16.80;9.87;;;11.70;99.90;;;;;;5034194;28;20182;-79
2021/03/24 09:45:06;;;;;;;18.10;9.50;;;12.10;99.90;;;;;;5033407;28;20266;-80
2021/03/24 09:47:45;;;;;;;17.93;9.50;;;12.00;99.90;;;;;;5018096;28;21286;-79
2021/03/24 09:50:22;;;;;;;15.63;10.30;;;12.10;99.90;;;;;;5026297;28;20183;-79
2021/03/24 09:52:57;;;;;;;14.53;9.87;;;12.20;99.90;;;;;;5026311;28;20182;-80
2021/03/24 09:55:27;;;;;;;16.53;10.47;;;12.50;99.90;;;;;;5018400;28;20217;-79
2021/03/24 09:57:58;;;;;;;17.95;10.63;;;12.40;99.90;;;;;;5034923;28;20175;-80
2021/03/24 10:00:27;;;;;;;13.90;9.10;;;12.50;99.90;;;;;;5026260;28;20218;-79
2021/03/24 10:03:07;;;;;;;17.93;10.43;;;12.90;99.90;;;;;;5015148;28;20693;-80
2021/03/24 10:05:42;;;;;;;16.85;11.15;;;13.10;99.90;;;;;;5025002;28;20241;-79
2021/03/24 10:08:17;;;;;;;19.08;11.32;;;13.30;99.90;;;;;;5023929;28;20240;-80
2021/03/24 10:10:45;;;;;;;16.50;9.85;;;13.40;99.90;;;;;;5033752;28;20671;-80
2021/03/24 10:13:25;;;;;;;17.08;10.88;;;13.50;99.90;;;;;;5025747;28;20261;-79
2021/03/24 10:15:52;;;;;;;13.50;8.75;;;13.60;99.90;;;;;;5026231;28;20234;-80
2021/03/24 10:18:27;;;;;;;16.15;9.82;;;13.60;99.90;;;;;;5025914;28;20187;-79
2021/03/24 10:20:52;;;;;;;15.98;9.15;;;13.50;99.90;;;;;;5025368;28;20182;-80
2021/03/24 10:23:34;;;;;;;16.52;10.57;;;13.60;99.90;;;;;;5034285;28;20297;-80
2021/03/24 10:26:20;;;;;;;16.55;10.75;;;13.70;99.90;;;;;;5025423;28;20288;-80
2021/03/24 10:28:59;;;;;;;17.08;10.77;;;13.90;99.90;;;;;;5034618;28;20265;-78
2021/03/24 10:31:29;;;;;;;14.88;9.48;;;13.90;99.90;;;;;;5026655;28;20710;-78
2021/03/24 10:34:14;;;;;;;16.08;10.15;;;13.90;99.90;;;;;;5035738;28;20233;-77
2021/03/24 10:36:57;;;;;;;15.50;9.35;;;13.90;99.90;;;;;;5034339;28;20711;-77
2021/03/24 10:39:45;;;;;;;16.90;9.75;;;13.70;99.90;;;;;;5028528;28;20249;-77
2021/03/24 10:42:17;;;;;;;14.60;9.75;;;13.60;99.90;;;;;;5026424;28;20175;-77
2021/03/24 10:45:11;;;;;;;16.13;9.90;;;13.70;99.90;;;;;;5026181;28;20283;-78
2021/03/24 10:47:55;;;;;;;16.27;9.55;;;13.80;99.90;;;;;;5019363;28;20198;-77
2021/03/24 10:50:24;;;;;;;15.38;9.70;;;14.10;99.90;;;;;;5027494;28;20187;-77
2021/03/24 10:53:08;;;;;;;15.55;9.80;;;13.90;99.90;;;;;;5027382;28;20193;-77
2021/03/24 10:55:37;;;;;;;16.15;10.82;;;13.90;99.90;;;;;;5027034;28;20276;-77
2021/03/24 10:58:06;;;;;;;16.05;10.18;;;14.00;99.90;;;;;;5027303;28;20190;-77
2021/03/24 11:00:37;;;;;;;16.33;9.80;;;14.00;99.90;;;;;;5027240;28;20656;-77
2021/03/24 11:03:26;;;;;;;16.02;9.98;;;13.90;99.90;;;;;;5027151;28;20175;-78
2021/03/24 11:06:04;;;;;;;16.13;10.30;;;14.10;99.90;;;;;;5027161;28;20253;-78
2021/03/24 11:09:02;;;;;;;16.30;9.23;;;14.30;99.90;;;;;;5027411;28;20202;-77
2021/03/24 11:11:36;;;;;;;16.98;9.90;;;14.50;99.90;;;;;;5027168;28;20187;-77
2021/03/24 11:14:12;;;;;;;19.15;11.30;;;14.60;99.90;;;;;;5026918;28;20202;-77
2021/03/24 11:16:48;;;;;;;19.30;11.27;;;14.40;99.90;;;;;;5033788;28;21044;-77
2021/03/24 11:19:26;;;;;;;18.05;10.05;;;14.40;99.90;;;;;;5026944;28;20269;-77
2021/03/24 11:22:00;;;;;;;17.63;11.82;;;14.30;99.90;;;;;;5027123;28;20265;-77
2021/03/24 11:24:48;;;;;;;18.40;11.27;;;14.10;99.90;;;;;;5025473;28;20182;-78
2021/03/24 11:27:24;;;;;;;17.52;9.95;;;14.20;99.90;;;;;;5025805;28;20340;-77
2021/03/24 11:30:14;;;;;;;17.10;10.20;;;14.20;99.90;;;;;;5027133;28;20186;-77
2021/03/24 11:32:50;;;;;;;15.88;10.02;;;14.00;99.90;;;;;;4988351;28;20195;-77
2021/03/24 11:35:35;;;;;;;16.13;10.15;;;14.10;99.90;;;;;;5026810;28;20225;-77
2021/03/24 11:38:00;;;;;;;16.00;10.10;;;13.90;99.90;;;;;;5026739;28;20179;-77
2021/03/24 11:40:31;;;;;;;18.80;11.98;;;13.80;99.90;;;;;;5026844;28;20198;-77
2021/03/24 11:43:20;;;;;;;15.57;9.52;;;13.70;99.90;;;;;;5026524;28;20215;-77
2021/03/24 11:45:47;;;;;;;16.20;9.63;;;13.70;99.90;;;;;;5026588;28;20265;-77
2021/03/24 11:48:30;;;;;;;18.45;9.50;;;13.70;99.90;;;;;;5026219;28;20187;-77
2021/03/24 11:51:05;;;;;;;17.25;9.52;;;13.60;99.90;;;;;;5026151;28;20206;-76
2021/03/24 11:53:43;;;;;;;17.23;10.32;;;13.70;99.90;;;;;;5024788;28;20786;-78
2021/03/24 11:56:19;;;;;;;16.38;9.90;;;13.80;99.90;;;;;;5033536;28;20202;-77
2021/03/24 11:58:53;;;;;;;20.30;11.00;;;13.90;99.90;;;;;;5026263;28;20194;-77
2021/03/24 12:02:07;;;;;;;17.58;10.18;;;13.90;99.90;;;;;;5026326;28;20171;-78
2021/03/24 12:04:38;;;;;;;15.80;9.48;;;14.10;99.90;;;;;;4987117;28;20229;-78
2021/03/24 12:07:18;;;;;;;14.95;9.88;;;14.10;99.90;;;;;;5022936;28;20199;-79
2021/03/24 12:09:44;;;;;;;15.38;9.50;;;14.10;99.90;;;;;;5022697;28;20530;-78
2021/03/24 12:12:09;;;;;;;18.52;11.38;;;13.90;99.90;;;;;;5021472;28;20214;-79
2021/03/24 12:14:36;;;;;;;17.00;10.48;;;14.00;99.90;;;;;;5023064;28;20264;-77
2021/03/24 12:17:22;;;;;;;14.63;10.00;;;14.10;99.90;;;;;;5023515;28;20202;-78
2021/03/24 12:19:48;;;;;;;15.43;9.70;;;14.10;99.90;;;;;;5014499;28;20189;-78
2021/03/24 12:22:31;;;;;;;15.70;8.70;;;14.00;99.90;;;;;;5024660;28;20194;-78
2021/03/24 12:25:00;;;;;;;15.95;9.65;;;14.00;99.90;;;;;;5024091;28;20183;-79
2021/03/24 12:27:32;;;;;;;14.63;9.02;;;14.10;99.90;;;;;;5022633;28;20665;-78
2021/03/24 12:30:20;;;;;;;15.85;9.40;;;14.10;99.90;;;;;;5022788;28;20206;-78
2021/03/24 12:32:46;;;;;;;15.60;9.15;;;14.30;99.90;;;;;;5023282;28;20193;-78
2021/03/24 12:35:26;;;;;;;15.38;9.68;;;14.20;99.90;;;;;;5023919;28;20219;-77
2021/03/24 12:37:58;;;;;;;16.20;9.45;;;14.30;99.90;;;;;;5021666;28;20248;-77
2021/03/24 12:40:25;;;;;;;17.67;10.30;;;14.20;99.90;;;;;;5037917;28;20183;-78
2021/03/24 12:42:52;;;;;;;14.73;8.93;;;14.30;99.90;;;;;;5021357;28;20615;-77
2021/03/24 12:45:30;;;;;;;14.07;8.95;;;14.20;99.90;;;;;;5014915;28;20301;-78
2021/03/24 12:48:22;;;;;;;15.13;9.18;;;14.20;99.90;;;;;;5024223;28;20190;-77
2021/03/24 12:51:02;;;;;;;15.82;9.60;;;14.30;99.90;;;;;;5023400;28;20190;-78
2021/03/24 12:53:40;;;;;;;14.50;9.55;;;14.20;99.90;;;;;;5011279;28;20194;-77
2021/03/24 12:56:24;;;;;;;15.88;9.75;;;14.40;99.90;;;;;;5021583;28;20206;-77
2021/03/24 12:58:53;;;;;;;15.07;9.32;;;14.40;99.90;;;;;;5021511;28;20249;-77
2021/03/24 13:01:40;;;;;;;13.55;8.60;;;14.40;99.90;;;;;;5023124;28;20282;-78
2021/03/24 13:04:44;;;;;;;15.38;8.73;;;14.30;99.90;;;;;;5022830;28;20191;-78
2021/03/24 13:07:43;;;;;;;12.57;7.63;;;14.30;99.90;;;;;;5010191;28;20233;-77
2021/03/24 13:10:33;;;;;;;13.65;8.23;;;14.30;99.90;;;;;;5023408;28;20206;-78
2021/03/24 13:13:36;;;;;;;14.63;8.52;;;14.40;99.90;;;;;;5022827;28;20187;-77
2021/03/24 13:16:13;;;;;;;13.68;8.63;;;14.40;99.90;;;;;;5022251;28;20230;-78
2021/03/24 13:18:56;;;;;;;13.80;7.95;;;14.40;99.90;;;;;;5021551;28;20194;-76
2021/03/24 13:21:48;;;;;;;13.10;8.63;;;14.40;99.90;;;;;;5022869;28;20244;-78
2021/03/24 13:24:20;;;;;;;13.73;7.68;;;14.50;99.90;;;;;;5021606;28;20190;-77
2021/03/24 13:26:46;;;;;;;14.48;8.63;;;14.40;99.90;;;;;;5023448;28;20366;-78
2021/03/24 13:29:32;;;;;;;15.90;7.78;;;14.50;99.90;;;;;;5023269;28;20266;-78